Julián Romano

Chefscout - All Boys
3 Dez 2028
Sonntag
Verarbeitung

Persönlichkeit

Anpassungsfähigkeit (2) Ehrgeiz (6) Kontroverse (9) Loyalität (4) Druck (18) Professionalität (15) Fairness (8) Temperament (19)

Profil

Trainerstil Demokratisch
Lizenz Nationale B
Entschlossenheit 4
Menschenführung 5
Motivation 3
Disziplin 6
Arbeitszufriedenheit
100%
Ermüdung
0%
Rolle Chefscout
Gehalt 6.2K p/W
Vertrag 14.03.2029

Leistung

Verhalten Gut
Trainingseffektivität
14%
Spielerentwicklung
35%
Verletzungsprävention
35%
Taktische Umsetzung
10%

Letzte Ereignisse

Spieler begutachtet 7T her
Spieler begutachtet 7T her
Spieler begutachtet 7T her
Spieler begutachtet 14T her
Spieler begutachtet 14T her
Spieler begutachtet 14T her
Spieler begutachtet 14T her
Spieler begutachtet 14T her

Aktuell beobachtet

243
Spieler Verein Status Fähigkeit Vertrauen Beobachtet Zuletzt beobachtet Letzte Stimme
Diego Gaitán Maipú Aktiv 124 / 125 40% 6 29.11.2028 -
Marcos Enrique Tristán Suárez Aktiv 115 / 126 40% 2 29.11.2028 -
Abel Bustos Racing Aktiv 122 / 129 40% 2 26.11.2028 -
Tobías Leiva Estudiantes Aktiv 111 / 116 40% 3 25.11.2028 -
Franco Vedoya Central Norte Aktiv 112 / 128 40% 5 25.11.2028 -
Facundo Taborda Racing Aktiv 104 / 105 40% 4 21.11.2028 -
Franco Bustamante Almagro Aktiv 96 / 90 40% 2 21.11.2028 -
Erik de los Santos Racing Aktiv 122 / 115 40% 3 20.11.2028 -
Matías Sosa Arsenal Aktiv 107 / 107 40% 2 20.11.2028 -
Enzo González Defensores Aktiv 112 / 115 40% 4 18.11.2028 -
Tomás Ferreyra Defensores Unidos Aktiv 120 / 113 40% 3 18.11.2028 -
José Barreto Quilmes Aktiv 120 / 124 40% 3 16.11.2028 -
Matías Bergara Nueva Chicago Aktiv 115 / 106 40% 3 16.11.2028 -
Rodrigo Ramírez Nueva Chicago Aktiv 114 / 123 40% 2 15.11.2028 -
Agustín Pereira Albion Aktiv 120 / 120 40% 3 15.11.2028 -
Gerónimo Tomasetti Temperley Aktiv 117 / 118 40% 4 14.11.2028 -
Santiago Sala Güemes Aktiv 120 / 119 40% 8 14.11.2028 -
Enderson Torrealba Estudiantes de Caracas Aktiv 99 / 83 40% 3 13.11.2028 -
Valentín Amoroso Plaza Colonia Aktiv 112 / 95 40% 1 13.11.2028 -
Gonzalo Flores Almirante Brown Aktiv 111 / 116 40% 2 08.11.2028 -
Nicolás Mosca Atlanta Aktiv 111 / 110 40% 2 08.11.2028 -
Camilo Machado Madryn Aktiv 113 / 101 40% 7 07.11.2028 -
Carlos Cantillo Jaguares Aktiv 121 / 124 40% 1 07.11.2028 -
Brandon Mejía Fortaleza CEIF Aktiv 100 / 100 40% 3 03.11.2028 -
Tomás Castro Ponce Atlanta Aktiv 113 / 111 40% 1 02.11.2028 -
Dylan Cabral Arsenal Aktiv 105 / 96 40% 1 02.11.2028 -
Sneider Navarro Metropolitanos Aktiv 102 / 101 40% 5 31.10.2028 -
Federico Versaci Talleres Aktiv 126 / 117 40% 6 30.10.2028 -
Gonzalo Trindade Nueva Chicago Aktiv 111 / 104 40% 1 30.10.2028 -
Francisco Ginella Albion Aktiv 105 / 118 40% 3 29.10.2028 -
Alejo Dramisino Atlanta Aktiv 112 / 114 40% 4 28.10.2028 -
Tiago Taobas Central Norte Aktiv 102 / 92 40% 1 27.10.2028 -
Enzo Silcan Almagro Aktiv 118 / 108 40% 4 25.10.2028 -
Kevin Colli Tristán Suárez Aktiv 109 / 105 40% 1 25.10.2028 -
Julián Brea Cobresal Aktiv 106 / 110 40% 2 24.10.2028 -
Renzo Reynaga Patronato Aktiv 117 / 106 40% 3 22.10.2028 -
Juan Camilo Quiñonez Llaneros Aktiv 103 / 90 40% 2 21.10.2028 -
Ramiro Makarte Alvarado Aktiv 103 / 113 40% 1 21.10.2028 -
Eyder Restrepo Llaneros Aktiv 109 / 96 40% 3 18.10.2028 -
Marco Miori Alvarado Aktiv 120 / 99 40% 5 18.10.2028 -
Martín Campos Ferro Carril Oeste Aktiv 131 / 119 40% 4 17.10.2028 -
Jhon Solís Fortaleza CEIF Aktiv 107 / 114 40% 2 17.10.2028 -
Marcelo Eggel Maipú Aktiv 103 / 117 40% 1 15.10.2028 -
Antonio Napolitano Agropecuario Argentino Aktiv 126 / 120 40% 2 14.10.2028 -
Pedro Sanz Central Norte Aktiv 115 / 107 40% 2 14.10.2028 -
Augusto Berrondo Tristán Suárez Aktiv 120 / 121 40% 5 13.10.2028 -
Thiago Lauro Morón Aktiv 115 / 130 40% 3 13.10.2028 -
Nicolás Retamar Ferro Carril Oeste Aktiv 119 / 122 40% 4 09.10.2028 -
Miguel Ceccotti Güemes Aktiv 105 / 115 40% 2 09.10.2028 -
Luis Olivera Defensores Unidos Aktiv 108 / 121 40% 2 08.10.2028 -
Simón Contreras Iquique Aktiv 108 / 94 40% 2 07.10.2028 -
David Veliz Güemes Aktiv 120 / 122 40% 3 06.10.2028 -
Román Gamarra San Telmo Aktiv 109 / 111 40% 2 02.10.2028 -
José Cadenas Zulia Aktiv 88 / 105 40% 1 02.10.2028 -
Franco Díaz Temperley Aktiv 133 / 135 40% 2 01.10.2028 -
Nicolás Medina Atlanta Aktiv 121 / 99 40% 1 30.09.2028 -
Nahuel Albano La Luz Aktiv 97 / 93 40% 2 29.09.2028 -
Bruno Pérez Madryn Aktiv 113 / 106 40% 2 23.09.2028 -
Agustín Dávila Cerro Largo Aktiv 90 / 97 40% 3 18.09.2028 -
Mauro Peinipil Colón Aktiv 114 / 126 40% 1 18.09.2028 -
Kevin Díaz Trujillanos Aktiv 94 / 84 40% 2 16.09.2028 -
Agustín Benítez Defensores Aktiv 125 / 106 40% 1 16.09.2028 -
Jerónimo Porto Lapegüe San Telmo Aktiv 119 / 114 40% 2 14.09.2028 -
Franco Ayunta Temperley Aktiv 117 / 98 40% 2 09.09.2028 -
Rodrigo Mosqueda River Plate Aktiv 105 / 109 40% 2 08.09.2028 -
Enzo Hoyos Ferro Carril Oeste Aktiv 110 / 115 40% 2 07.09.2028 -
Braian Aranda Agropecuario Argentino Aktiv 105 / 112 40% 1 03.09.2028 -
Álex Perdomo Defensor Sporting Aktiv 97 / 108 40% 3 30.08.2028 -
Nahuel Gómez Oriental Aktiv 94 / 86 40% 3 25.08.2028 -
Lucas Arzamendia Atenas Aktiv 98 / 94 40% 2 25.08.2028 -
Lautaro Gandulfo Central Espanol Aktiv 95 / 103 40% 2 23.08.2028 -
Juan Sebastián Herrera Deportivo La Guaira Aktiv 112 / 109 40% 1 20.08.2028 -
Gastón Moreyra Almirante Brown Aktiv 110 / 118 40% 4 18.08.2028 -
Juan Yangali San Telmo Aktiv 122 / 113 40% 1 13.08.2028 -
Tobías Salas Real Cartagena Aktiv 98 / 95 40% 1 13.08.2028 -
Facundo Villarreal Los Andes Aktiv 115 / 91 40% 2 11.08.2028 -
Samuel Bello Patriotas Aktiv 95 / 93 40% 1 09.08.2028 -
Carlos Airala Albion Aktiv 112 / 103 40% 4 06.08.2028 -
Owen Falconis Cerrito Aktiv 105 / 93 40% 5 05.08.2028 -
Julián Vera Maipú Aktiv 109 / 123 40% 3 05.08.2028 -
Gustavo Viera Cerro Largo Aktiv 102 / 103 40% 1 04.08.2028 -
Leison Cuero Colon Aktiv 87 / 86 40% 1 31.07.2028 -
Nazareno Petrecca Nueva Chicago Aktiv 101 / 93 40% 1 28.07.2028 -
Hervin Goyes Deportivo Pasto Aktiv 108 / 118 40% 1 27.07.2028 -
Jonathan Baeza La Luz Aktiv 106 / 91 40% 1 25.07.2028 -
Facundo Barreto Cerrito Aktiv 93 / 104 40% 1 13.07.2028 -
Siro Rosané Estudiantes Aktiv 121 / 122 40% 1 10.07.2028 -
Martín García Atlanta Aktiv 115 / 124 40% 1 10.07.2028 -
Ramón González Almirante Brown Aktiv 106 / 116 40% 1 09.07.2028 -
Pedro Souto Temperley Aktiv 109 / 130 40% 1 07.07.2028 -
Alan Olinick Racing Aktiv 124 / 111 40% 1 03.07.2028 -
Richard Castillo Valledupar Aktiv 73 / 81 40% 2 02.07.2028 -
Levit Béjar Universidad de Concepcion Aktiv 98 / 90 40% 1 30.06.2028 -
Brayan Castro Bogota Aktiv 104 / 84 40% 1 29.06.2028 -
Esteban de Lima Tacuarembo Aktiv 86 / 91 40% 1 27.06.2028 -
Johan Martínez Leones Aktiv 88 / 97 40% 1 26.06.2028 -
Sebastián Díaz Bogota Aktiv 102 / 93 40% 1 24.06.2028 -
Lucas Chiozza Alvarado Aktiv 116 / 114 40% 1 22.06.2028 -
Román Gutiérrez Albion Aktiv 93 / 91 40% 1 21.06.2028 -
Andrés Dieppa Bogota Aktiv 90 / 90 40% 2 13.06.2028 -
Franco Bigo 12 de Octubre Aktiv 95 / 85 40% 1 12.06.2028 -
Lucas López Iglesias 12 de Octubre Aktiv 87 / 102 40% 1 12.06.2028 -
Tobías Correa Uruguay Montevideo Aktiv 108 / 97 40% 2 07.06.2028 -
Iván Balanta Barranquilla Aktiv 87 / 93 40% 1 07.06.2028 -
Federico Bisanz Atlanta Aktiv 111 / 121 40% 1 28.12.2027 -
Christian Bravo Huachipato Aktiv 84 / 88 40% 2 14.12.2027 -
Oscar García Leon Aktiv 90 / 90 40% 2 12.12.2027 -
Mauro Rodas Sportivo Trinidense Aktiv 96 / 94 40% 2 10.12.2027 -
Lusiel Gómez La Luz Aktiv 91 / 100 40% 1 10.12.2027 -
Michael Barragán Union Magdalena Aktiv 105 / 90 40% 3 07.12.2027 -
Joaquín Bigo Tristán Suárez Aktiv 110 / 110 40% 1 07.12.2027 -
Cristian Santander Barranquilla Aktiv 117 / 116 40% 4 06.12.2027 -
Lautaro Herrera Estudiantes Aktiv 109 / 101 40% 3 06.12.2027 -
Diego Carreño O'Higgins Aktiv 106 / 88 40% 6 05.12.2027 -
Elías Villar Nacional Aktiv 86 / 101 40% 3 03.12.2027 -
Santiago Direnna Miramar Misiones Aktiv 81 / 71 40% 5 03.12.2027 -
Íker Blanco Deportivo Cali Aktiv 98 / 109 40% 1 01.12.2027 -
Sebastián Alzate Once Caldas Aktiv 98 / 86 40% 1 01.12.2027 -
Yeifer Herrera Leones Aktiv 90 / 104 40% 3 28.11.2027 -
Juan Esteban Gómez Atletico Nacional Aktiv 85 / 85 40% 1 28.11.2027 -
Mathías Bordón Sol de America Aktiv 79 / 85 40% 3 27.11.2027 -
Francisco Salerno Defensores Unidos Aktiv 120 / 120 40% 6 26.11.2027 -
Gali Balanta Deportes Tolima Aktiv 95 / 107 40% 3 25.11.2027 -
Facundo Machado Racing Aktiv 102 / 99 40% 1 25.11.2027 -
Brian Mancini Rampla Juniors Aktiv 94 / 92 40% 4 24.11.2027 -
Iván Chaves Patronato Aktiv 110 / 120 40% 3 24.11.2027 Beobachten
Antonio Martínez Cerro Porteno Aktiv 82 / 99 40% 2 23.11.2027 -
Jaime Acosta Barranquilla Aktiv 107 / 102 40% 2 21.11.2027 -
Sebastián Giraldo Depor Aktiv 94 / 87 40% 2 20.11.2027 -
Kevin Morgan Plaza Colonia Aktiv 97 / 119 40% 4 19.11.2027 -
Agustín Mieres Atlanta Aktiv 96 / 96 40% 2 16.11.2027 -
Lautaro Petruchi Gimnasia y Esgrima Aktiv 104 / 120 40% 2 15.11.2027 -
Facundo Vila Estudiantes Aktiv 98 / 116 40% 6 14.11.2027 -
Ramiro Véliz Artigas Aktiv 95 / 84 40% 1 14.11.2027 -
Adrián Acosta Portuguesa Aktiv 82 / 89 40% 2 12.11.2027 -
Santiago Scian Nautico Aktiv 78 / 83 40% 1 04.11.2027 -
Leo Ocampo Los Angeles Football Club Aktiv 83 / 85 40% 1 02.11.2027 -
Jesús Mejía Real Santander Aktiv 94 / 101 40% 1 30.10.2027 -
Santiago Videla Iquique Aktiv 90 / 103 40% 1 14.10.2027 -
Marco Espíndola Real Cartagena Aktiv 97 / 108 40% 1 11.10.2027 -
José Luis Torres Boston River Aktiv 79 / 82 40% 3 10.10.2027 -
Juan Ignacio Blanco Defensor Sporting Aktiv 82 / 83 40% 2 08.10.2027 -
Federico Bonilla River Plate Aktiv 98 / 91 40% 3 04.10.2027 -
Esteban Glellel Quilmes Aktiv 124 / 104 40% 3 29.09.2027 -
Alejandro Amaya Union Magdalena Aktiv 105 / 93 40% 1 28.09.2027 -
Jesús Peralta Olimpia Aktiv 90 / 85 40% 1 22.09.2027 -
Santiago Godoy 12 de Octubre Aktiv 86 / 87 40% 2 21.09.2027 -
Anthony Vilche Colon Aktiv 78 / 97 40% 2 17.09.2027 -
Joel Abraham Boston River Aktiv 84 / 103 40% 2 15.09.2027 -
Alex Mosquera Barranquilla Aktiv 89 / 96 40% 1 15.09.2027 -
Luis Mateus Atletico Bucaramanga Aktiv 79 / 104 40% 2 12.09.2027 -
Jonathan González River Plate Aktiv 99 / 89 40% 1 12.09.2027 -
Edison Gutiérrez Universitario Aktiv 71 / 89 40% 1 06.09.2027 -
César González Queretaro Aktiv 84 / 105 40% 2 05.09.2027 -
Mateo Stefan Cerro Largo Aktiv 76 / 79 40% 3 04.09.2027 -
Lucas Toffoletti Cienciano Aktiv 86 / 88 40% 2 26.08.2027 -
Felipe Bianchi Nacional Aktiv 74 / 82 40% 1 26.08.2027 -
Juan Miguel Betancourth Deportivo Pereira Aktiv 81 / 83 40% 2 25.08.2027 -
Yael Delgado Queretaro Aktiv 71 / 76 40% 1 20.08.2027 -
Roberto Moreno Cruz Azul Aktiv 73 / 78 40% 2 13.08.2027 -
Miguel Silva Carabobo Aktiv 113 / 121 40% 2 11.08.2027 -
Ezequiel Navarro Montoya Atlanta United FC Aktiv 100 / 78 40% 1 08.08.2027 -
Cristian Quiñónes General Caballero Aktiv 81 / 95 40% 2 04.08.2027 -
Fabián Palomino Ayacucho Aktiv 84 / 95 40% 1 03.08.2027 -
Ítalo Sulbarán Mineros de Guayana Aktiv 81 / 80 40% 1 02.08.2027 -
Antonio González Estudiantes de Caracas Aktiv 90 / 84 40% 1 02.08.2027 -
Omar Robles Real Cartagena Aktiv 81 / 88 40% 2 30.07.2027 -
Adrián Csenterics Deportivo Tachira Aktiv 90 / 92 40% 3 26.07.2027 -
Lautaro Bursich Talleres Aktiv 95 / 116 40% 1 23.07.2027 -
Moisés Gallo Aragua Aktiv 106 / 112 40% 4 20.07.2027 -
Gaizka Gómez Wanderers Aktiv 79 / 75 40% 2 19.07.2027 -
Tomás Barbero Defensores Unidos Aktiv 97 / 94 40% 1 15.07.2027 -
Oscar Meza Portuguesa Aktiv 94 / 90 40% 1 13.07.2027 -
Javier Bravo Mineros de Guayana Aktiv 81 / 92 40% 1 13.07.2027 -
Alex Payares Barranquilla Aktiv 93 / 95 40% 1 29.06.2027 -
Yeferson Cordova Llaneros Aktiv 102 / 104 40% 4 27.06.2027 -
Gastón Vega Artigas Aktiv 72 / 93 40% 1 22.06.2027 -
Luis Quintero Deportivo La Guaira Aktiv 98 / 104 40% 1 18.06.2027 -
Ángel Romero Guadalajara Aktiv 95 / 93 40% 1 14.06.2027 -
Tomás Palleres Güemes Aktiv 99 / 106 40% 2 30.05.2027 Mehr Infos nötig
César Carrizo Mineros de Guayana Aktiv 104 / 81 40% 2 29.05.2027 -
Jorge Martínez Deportivo Pereira Aktiv 76 / 97 40% 1 25.05.2027 -
Marlon Flórez Estudiantes de Caracas Aktiv 87 / 72 40% 1 20.05.2027 -
Rafael Sánchez Estudiantes de Caracas Aktiv 98 / 98 40% 3 19.05.2027 -
Francisco Mongelos Sportivo Luqueno Aktiv 100 / 90 40% 1 14.05.2027 Mehr Infos nötig
Nahuel Manganelli San Martín Aktiv 120 / 102 40% 1 11.05.2027 Mehr Infos nötig
Andrés Macea Deportivo Pereira Aktiv 90 / 100 40% 1 22.04.2027 -
Alberto Martínez River Plate Aktiv 86 / 90 40% 1 17.04.2027 -
Nahuel Acosta Progreso Aktiv 101 / 112 40% 2 30.11.2026 -
Santiago Ramírez Deportivo Maldonado Aktiv 96 / 104 40% 3 29.11.2026 -
Ezequiel Almirón Estudiantes Aktiv 123 / 119 40% 1 27.11.2026 -
Franco Suárez Racing Aktiv 100 / 97 40% 1 26.11.2026 -
Nicolás Leites Artigas Aktiv 81 / 84 40% 3 24.11.2026 -
Gerónimo Blanco River Plate Aktiv 74 / 85 40% 1 22.11.2026 -
Juan Mendoza Güemes Aktiv 112 / 105 40% 1 22.11.2026 -
Nicolás Heiz Maipú Aktiv 120 / 113 40% 2 20.11.2026 -
Blas Armoa Gimnasia y Esgrima Aktiv 113 / 106 40% 1 17.11.2026 -
Lucas Pedraza Defensores Unidos Aktiv 108 / 107 40% 1 16.11.2026 -
Emiliano García Uruguay Montevideo Aktiv 98 / 99 40% 2 14.11.2026 -
Ronny Maza Aragua Aktiv 107 / 97 40% 3 14.11.2026 -
Sebastián Camacho Uruguay Montevideo Aktiv 90 / 99 40% 2 12.11.2026 -
Luca Bastilla Nashville SC Aktiv 86 / 113 40% 1 11.11.2026 -
Gianluca Pugliese Güemes Aktiv 115 / 108 40% 1 09.11.2026 -
Nahuel Marzochi Colon Aktiv 102 / 100 40% 3 06.11.2026 -
Luca Franco Arsenal Aktiv 97 / 118 40% 1 06.11.2026 -
Salomon Ramirez Atletico Venezuela Aktiv 97 / 106 40% 1 03.11.2026 -
Lisandro Cabrera Maipú Aktiv 127 / 105 40% 1 31.10.2026 -
Ignacio Pereira Danubio Aktiv 115 / 99 40% 1 25.10.2026 -
Marber Suárez Zulia Aktiv 84 / 98 40% 1 24.10.2026 -
Sebastián Marfort Racing Aktiv 109 / 100 40% 1 20.10.2026 -
Brian González Atenas Aktiv 90 / 91 40% 1 19.10.2026 -
Santiago Herrera Estudiantes de Caracas Aktiv 99 / 80 40% 2 16.10.2026 -
Germán Cervera Alvarado Aktiv 90 / 94 40% 1 16.10.2026 -
Esteban Moreira O'Higgins Aktiv 89 / 89 40% 1 13.10.2026 -
Agustín Juárez Minnesota United FC Aktiv 95 / 97 40% 1 12.10.2026 -
Cristian Lima Uruguay Montevideo Aktiv 90 / 98 40% 1 12.10.2026 -
Walter Domínguez Deportivo Maldonado Aktiv 81 / 104 40% 2 11.10.2026 -
Juan Álvarez Uruguay Montevideo Aktiv 101 / 90 40% 1 07.10.2026 -
Martín Pino Godoy Cruz Aktiv 125 / 102 40% 1 07.10.2026 -
Mauro Martín Progreso Aktiv 115 / 101 40% 1 06.10.2026 -
Renato Alexandrino Oriental Aktiv 100 / 84 40% 1 04.10.2026 -
Sebastián Cocimano Nueva Chicago Aktiv 123 / 128 40% 1 29.09.2026 -
Esteban Rodríguez Uruguay Montevideo Aktiv 88 / 90 40% 1 27.09.2026 -
José Rivas Gamboa Trujillanos Aktiv 100 / 99 40% 2 24.09.2026 -
Rodrigo Muníz Uruguay Montevideo Aktiv 99 / 95 40% 1 23.09.2026 -
Agustín Bianciotti Metropolitanos Aktiv 91 / 88 40% 1 19.09.2026 -
Nahuel Soria Oriental Aktiv 94 / 97 40% 1 18.09.2026 -
Carlos Torres Deportivo Pasto Aktiv 84 / 105 40% 1 14.09.2026 -
Franco Troyansky Audax Italiano Aktiv 116 / 101 40% 2 13.09.2026 -
Jimmy Evans Universidad Catolica Aktiv 100 / 106 40% 1 13.09.2026 -
Nahuel Sena Cerro Aktiv 110 / 97 40% 1 10.09.2026 -
Bruno Scorza La Luz Aktiv 85 / 108 40% 2 31.08.2026 -
Lucas Espinosa Colon Aktiv 92 / 69 40% 1 31.08.2026 -
Juan David Ruiz Leones Aktiv 81 / 77 40% 1 25.08.2026 -
Braian Vargas Cerro Aktiv 100 / 89 40% 1 18.08.2026 -
Kevin Campillay Antofagasta Aktiv 99 / 96 40% 1 17.08.2026 -
Nicolás Sosa La Luz Aktiv 76 / 93 40% 1 16.08.2026 -
Mauricio Liñán Bogota Aktiv 89 / 103 40% 1 15.08.2026 -
Diego Méndez Tacuarembo Aktiv 79 / 91 40% 1 14.08.2026 -
Lucas González Nacional Aktiv 114 / 111 40% 1 13.08.2026 -
Thomas González Cerro Largo Aktiv 80 / 71 40% 1 13.08.2026 -
Junior Paredes Trujillanos Aktiv 106 / 84 40% 1 08.08.2026 -
Franco Pérez Boston River Aktiv 93 / 101 40% 1 01.08.2026 -